createdAt,value
2022-10-05T00:04:52.141Z,7.34
2022-10-05T00:11:34.834Z,7.39
2022-10-05T00:18:17.410Z,7.53
2022-10-05T00:25:00.091Z,7.60
2022-10-05T00:31:42.715Z,7.65
2022-10-05T00:38:26.040Z,7.62
2022-10-05T00:45:24.095Z,7.52
2022-10-05T00:51:46.917Z,7.59
2022-10-05T01:12:39.659Z,7.55
2022-10-05T01:19:34.549Z,7.48
2022-10-05T01:26:18.752Z,7.42
2022-10-05T01:33:17.093Z,7.51
2022-10-05T01:40:14.869Z,7.60
2022-10-05T02:01:09.832Z,7.56
2022-10-05T02:07:53.850Z,7.49
2022-10-05T02:14:36.807Z,7.52
2022-10-05T02:21:25.998Z,7.52
2022-10-05T02:28:09.042Z,7.58
2022-10-05T02:35:07.160Z,7.57
2022-10-05T02:41:50.278Z,7.52
2022-10-05T02:48:39.260Z,7.52
2022-10-05T02:55:22.008Z,7.50
2022-10-05T03:02:04.978Z,7.49
2022-10-05T03:08:53.683Z,7.53
2022-10-05T03:16:12.420Z,7.60
2022-10-05T03:23:04.279Z,7.67
2022-10-05T03:29:53.886Z,7.69
2022-10-05T03:44:27.715Z,7.74
2022-10-05T03:51:05.855Z,7.74
2022-10-05T03:57:34.547Z,7.63
2022-10-05T04:04:17.394Z,7.52
2022-10-05T04:11:00.277Z,7.42
2022-10-05T04:17:46.237Z,7.32
2022-10-05T04:24:40.842Z,7.30
2022-10-05T04:31:24.629Z,7.20
2022-10-05T04:38:16.780Z,7.11
2022-10-05T04:45:26.994Z,7.15
2022-10-05T04:52:18.545Z,7.15
2022-10-05T04:58:51.060Z,7.16
2022-10-05T05:05:27.312Z,7.19
2022-10-05T05:11:30.521Z,7.25
2022-10-05T05:18:06.565Z,7.25
2022-10-05T05:31:05.412Z,7.49
2022-10-05T05:36:50.556Z,7.56
2022-10-05T05:43:20.124Z,7.69
2022-10-05T05:50:06.979Z,7.80
2022-10-05T05:56:34.232Z,7.90
2022-10-05T06:02:07.258Z,8.04
2022-10-05T06:07:31.956Z,8.17
2022-10-05T06:13:57.372Z,8.24
2022-10-05T06:20:39.444Z,8.35
2022-10-05T06:27:20.394Z,8.52
2022-10-05T06:34:05.215Z,8.72
2022-10-05T06:40:41.525Z,9.07
2022-10-05T06:47:28.924Z,9.41
2022-10-05T06:54:17.676Z,9.71
2022-10-05T07:00:20.394Z,10.00
2022-10-05T07:13:56.058Z,10.55
2022-10-05T07:20:19.304Z,10.89
2022-10-05T07:27:14.598Z,11.15
2022-10-05T07:34:02.087Z,11.34
2022-10-05T07:40:14.875Z,11.60
2022-10-05T07:46:40.234Z,11.81
2022-10-05T07:52:10.687Z,11.99
2022-10-05T07:58:12.573Z,12.22
2022-10-05T08:04:16.122Z,12.46
2022-10-05T08:10:27.663Z,12.68
2022-10-05T08:15:54.081Z,12.93
2022-10-05T08:21:21.054Z,13.25
2022-10-05T08:27:08.605Z,13.56
2022-10-05T08:32:37.957Z,13.75
2022-10-05T08:38:24.670Z,13.98
2022-10-05T08:43:50.546Z,14.23
2022-10-05T08:49:43.024Z,14.38
2022-10-05T08:55:11.066Z,14.50
2022-10-05T09:00:49.075Z,14.68
2022-10-05T09:06:17.219Z,14.83
2022-10-05T09:11:54.717Z,14.90
2022-10-05T09:17:22.822Z,14.85
2022-10-05T09:23:20.195Z,14.92
2022-10-05T09:29:20.858Z,15.31
2022-10-05T09:35:25.085Z,15.79
2022-10-05T09:41:33.863Z,16.21
2022-10-05T09:59:53.034Z,17.31
2022-10-05T10:05:49.144Z,17.61
2022-10-05T10:12:01.772Z,17.84
2022-10-05T10:17:43.107Z,17.89
2022-10-05T10:23:54.692Z,17.94
2022-10-05T10:55:53.104Z,18.03
2022-10-05T11:02:09.087Z,18.15
2022-10-05T11:07:59.537Z,18.26
2022-10-05T11:13:59.062Z,18.23
2022-10-05T11:19:59.523Z,18.28
2022-10-05T11:25:56.124Z,18.23
2022-10-05T11:32:29.293Z,18.25
2022-10-05T11:39:19.500Z,18.25
2022-10-05T11:45:53.131Z,18.35
2022-10-05T11:51:50.581Z,18.43
2022-10-05T11:57:35.058Z,18.52
2022-10-05T12:03:33.199Z,18.59
2022-10-05T12:09:42.973Z,18.59
2022-10-05T12:15:34.741Z,18.59
2022-10-05T12:21:52.947Z,18.60
2022-10-05T12:27:43.231Z,18.52
2022-10-05T12:33:35.008Z,18.46
2022-10-05T12:57:06.316Z,17.47
2022-10-05T13:03:00.378Z,17.39
2022-10-05T13:08:43.826Z,17.37
2022-10-05T13:14:12.317Z,17.31
2022-10-05T13:20:09.756Z,17.22
2022-10-05T13:25:56.174Z,17.08
2022-10-05T13:31:43.633Z,16.99
2022-10-05T13:38:07.872Z,16.92
2022-10-05T13:44:18.308Z,16.91
2022-10-05T13:50:23.210Z,16.97
2022-10-05T13:56:08.033Z,17.15
2022-10-05T14:02:01.950Z,17.46
2022-10-05T14:07:57.034Z,17.72
2022-10-05T14:13:48.742Z,17.85
2022-10-05T14:19:22.385Z,17.92
2022-10-05T14:25:34.475Z,18.00
2022-10-05T14:31:27.730Z,18.00
2022-10-05T14:36:57.060Z,17.85
2022-10-05T14:43:23.579Z,17.66
2022-10-05T14:49:08.832Z,17.43
2022-10-05T14:55:01.310Z,17.28
2022-10-05T15:00:27.321Z,17.12
2022-10-05T15:05:56.085Z,16.97
2022-10-05T15:11:27.880Z,16.77
2022-10-05T15:17:43.280Z,16.56
2022-10-05T15:23:52.867Z,16.34
2022-10-05T15:30:14.206Z,16.14
2022-10-05T15:36:04.885Z,15.95
2022-10-05T15:42:29.829Z,15.79
2022-10-05T15:49:00.747Z,15.64
2022-10-05T15:55:46.546Z,15.46
2022-10-05T16:02:01.362Z,15.29
2022-10-05T16:14:56.196Z,15.00
2022-10-05T16:41:23.987Z,14.67
2022-10-05T16:47:16.204Z,14.72
2022-10-05T16:52:55.179Z,15.03
2022-10-05T16:59:31.977Z,15.39
2022-10-05T17:06:15.384Z,15.76
2022-10-05T17:12:22.317Z,15.86
2022-10-05T17:18:15.320Z,15.56
2022-10-05T17:24:00.925Z,15.18
2022-10-05T17:29:43.166Z,14.82
2022-10-05T17:35:26.135Z,14.56
2022-10-05T17:41:14.272Z,14.36
2022-10-05T17:47:02.120Z,14.23
2022-10-05T17:52:49.165Z,14.11
2022-10-05T17:58:32.202Z,14.00
2022-10-05T18:04:52.799Z,13.90
2022-10-05T18:11:07.323Z,13.83
2022-10-05T18:16:57.216Z,13.79
2022-10-05T18:22:46.210Z,13.80
2022-10-05T18:34:51.631Z,13.67
2022-10-05T18:47:38.472Z,13.52
2022-10-05T18:54:11.824Z,13.46
2022-10-05T19:00:34.064Z,13.35
2022-10-05T19:07:17.587Z,13.24
2022-10-05T19:14:06.812Z,13.19
2022-10-05T19:20:26.147Z,13.15
2022-10-05T19:47:01.334Z,12.90
2022-10-05T19:53:09.381Z,12.80
2022-10-05T19:59:39.180Z,12.70
2022-10-05T20:05:43.039Z,12.66
2022-10-05T20:11:30.089Z,12.59
2022-10-05T20:17:59.729Z,12.51
2022-10-05T20:23:42.439Z,12.45
2022-10-05T20:29:48.806Z,12.38
2022-10-05T20:36:32.459Z,12.27
2022-10-05T20:43:32.356Z,12.33
2022-10-05T20:50:15.902Z,12.42
2022-10-05T20:56:59.561Z,12.34
2022-10-05T21:03:42.500Z,12.23
2022-10-05T21:10:26.205Z,12.10
2022-10-05T21:17:14.779Z,12.04
2022-10-05T21:23:58.569Z,11.94
2022-10-05T21:30:41.682Z,11.82
2022-10-05T21:37:27.259Z,11.79
2022-10-05T21:44:10.370Z,11.72
2022-10-05T21:50:54.385Z,11.63
2022-10-05T21:57:37.284Z,11.60
2022-10-05T22:04:22.983Z,11.53
2022-10-05T22:11:10.556Z,11.43
2022-10-05T22:17:55.445Z,11.40
2022-10-05T22:24:02.918Z,11.32
